sensor_id;sensor_type;location;lat;lon;timestamp;P1;durP1;ratioP1;P2;durP2;ratioP2
8500;SDS011;4288;48.484;10.024;2022-12-18T00:00:40;52.53;;;18.43;;
8500;SDS011;4288;48.484;10.024;2022-12-18T00:03:07;51.67;;;15.93;;
8500;SDS011;4288;48.484;10.024;2022-12-18T00:05:34;52.90;;;16.10;;
8500;SDS011;4288;48.484;10.024;2022-12-18T00:08:02;52.00;;;17.03;;
8500;SDS011;4288;48.484;10.024;2022-12-18T00:10:29;82.17;;;17.73;;
8500;SDS011;4288;48.484;10.024;2022-12-18T00:12:56;44.17;;;18.07;;
8500;SDS011;4288;48.484;10.024;2022-12-18T00:15:23;52.10;;;17.77;;
8500;SDS011;4288;48.484;10.024;2022-12-18T00:17:50;64.73;;;17.90;;
8500;SDS011;4288;48.484;10.024;2022-12-18T00:20:16;52.80;;;17.40;;
8500;SDS011;4288;48.484;10.024;2022-12-18T00:22:50;61.13;;;18.33;;
8500;SDS011;4288;48.484;10.024;2022-12-18T00:25:18;58.10;;;17.00;;
8500;SDS011;4288;48.484;10.024;2022-12-18T00:27:45;64.87;;;17.40;;
8500;SDS011;4288;48.484;10.024;2022-12-18T00:30:12;66.97;;;20.10;;
8500;SDS011;4288;48.484;10.024;2022-12-18T00:32:39;61.63;;;18.70;;
8500;SDS011;4288;48.484;10.024;2022-12-18T00:35:06;77.63;;;19.77;;
8500;SDS011;4288;48.484;10.024;2022-12-18T00:37:33;58.07;;;15.60;;
8500;SDS011;4288;48.484;10.024;2022-12-18T00:40:00;63.40;;;18.00;;
8500;SDS011;4288;48.484;10.024;2022-12-18T00:42:29;55.53;;;18.00;;
8500;SDS011;4288;48.484;10.024;2022-12-18T00:45:13;65.13;;;18.30;;
8500;SDS011;4288;48.484;10.024;2022-12-18T00:47:39;67.87;;;18.47;;
8500;SDS011;4288;48.484;10.024;2022-12-18T00:50:07;69.90;;;19.10;;
8500;SDS011;4288;48.484;10.024;2022-12-18T00:52:35;66.93;;;18.50;;
8500;SDS011;4288;48.484;10.024;2022-12-18T00:55:02;69.90;;;19.50;;
8500;SDS011;4288;48.484;10.024;2022-12-18T00:57:30;82.60;;;20.30;;
8500;SDS011;4288;48.484;10.024;2022-12-18T00:59:57;63.77;;;18.30;;
8500;SDS011;4288;48.484;10.024;2022-12-18T01:02:24;54.00;;;19.07;;
8500;SDS011;4288;48.484;10.024;2022-12-18T01:04:51;73.20;;;22.13;;
8500;SDS011;4288;48.484;10.024;2022-12-18T01:07:17;79.47;;;19.60;;
8500;SDS011;4288;48.484;10.024;2022-12-18T01:09:44;56.97;;;19.00;;
8500;SDS011;4288;48.484;10.024;2022-12-18T01:12:11;63.60;;;20.40;;
8500;SDS011;4288;48.484;10.024;2022-12-18T01:14:39;78.50;;;20.73;;
8500;SDS011;4288;48.484;10.024;2022-12-18T01:17:06;58.07;;;17.07;;
8500;SDS011;4288;48.484;10.024;2022-12-18T01:19:33;83.50;;;21.30;;
8500;SDS011;4288;48.484;10.024;2022-12-18T01:22:00;94.90;;;22.43;;
8500;SDS011;4288;48.484;10.024;2022-12-18T01:24:27;68.33;;;20.97;;
8500;SDS011;4288;48.484;10.024;2022-12-18T01:26:54;67.63;;;19.90;;
8500;SDS011;4288;48.484;10.024;2022-12-18T01:29:22;83.43;;;20.33;;
8500;SDS011;4288;48.484;10.024;2022-12-18T01:31:50;78.73;;;22.20;;
8500;SDS011;4288;48.484;10.024;2022-12-18T01:34:17;69.07;;;20.00;;
8500;SDS011;4288;48.484;10.024;2022-12-18T01:36:44;61.17;;;19.37;;
8500;SDS011;4288;48.484;10.024;2022-12-18T01:39:12;66.63;;;19.57;;
8500;SDS011;4288;48.484;10.024;2022-12-18T01:41:40;71.60;;;18.23;;
8500;SDS011;4288;48.484;10.024;2022-12-18T01:47:23;82.57;;;21.10;;
8500;SDS011;4288;48.484;10.024;2022-12-18T01:49:51;68.10;;;18.67;;
8500;SDS011;4288;48.484;10.024;2022-12-18T01:52:19;81.90;;;21.33;;
8500;SDS011;4288;48.484;10.024;2022-12-18T01:54:46;64.00;;;19.17;;
8500;SDS011;4288;48.484;10.024;2022-12-18T01:57:14;65.97;;;17.70;;
8500;SDS011;4288;48.484;10.024;2022-12-18T01:59:41;58.33;;;18.70;;
8500;SDS011;4288;48.484;10.024;2022-12-18T02:02:09;71.33;;;20.33;;
8500;SDS011;4288;48.484;10.024;2022-12-18T02:04:37;62.63;;;16.77;;
8500;SDS011;4288;48.484;10.024;2022-12-18T02:07:09;60.70;;;17.60;;
8500;SDS011;4288;48.484;10.024;2022-12-18T02:09:41;58.93;;;17.40;;
8500;SDS011;4288;48.484;10.024;2022-12-18T02:12:13;68.80;;;20.17;;
8500;SDS011;4288;48.484;10.024;2022-12-18T02:14:44;69.47;;;19.40;;
8500;SDS011;4288;48.484;10.024;2022-12-18T02:17:14;76.57;;;20.30;;
8500;SDS011;4288;48.484;10.024;2022-12-18T02:19:47;73.00;;;18.87;;
8500;SDS011;4288;48.484;10.024;2022-12-18T02:22:26;69.17;;;21.57;;
8500;SDS011;4288;48.484;10.024;2022-12-18T02:25:05;68.90;;;22.20;;
8500;SDS011;4288;48.484;10.024;2022-12-18T02:27:41;91.83;;;25.87;;
8500;SDS011;4288;48.484;10.024;2022-12-18T02:30:08;87.80;;;21.70;;
8500;SDS011;4288;48.484;10.024;2022-12-18T02:32:36;92.47;;;21.30;;
8500;SDS011;4288;48.484;10.024;2022-12-18T02:35:06;84.30;;;21.33;;
8500;SDS011;4288;48.484;10.024;2022-12-18T02:37:39;81.40;;;19.33;;
8500;SDS011;4288;48.484;10.024;2022-12-18T02:40:09;74.47;;;22.47;;
8500;SDS011;4288;48.484;10.024;2022-12-18T02:42:37;111.37;;;22.07;;
8500;SDS011;4288;48.484;10.024;2022-12-18T02:45:05;77.17;;;20.83;;
8500;SDS011;4288;48.484;10.024;2022-12-18T02:47:34;102.53;;;23.20;;
8500;SDS011;4288;48.484;10.024;2022-12-18T02:50:05;85.70;;;22.00;;
8500;SDS011;4288;48.484;10.024;2022-12-18T02:52:38;88.40;;;18.77;;
8500;SDS011;4288;48.484;10.024;2022-12-18T02:55:19;83.97;;;21.97;;
8500;SDS011;4288;48.484;10.024;2022-12-18T02:57:52;78.43;;;19.77;;
8500;SDS011;4288;48.484;10.024;2022-12-18T03:00:23;79.37;;;20.97;;
8500;SDS011;4288;48.484;10.024;2022-12-18T03:02:54;71.03;;;21.93;;
8500;SDS011;4288;48.484;10.024;2022-12-18T03:05:28;77.40;;;21.63;;
8500;SDS011;4288;48.484;10.024;2022-12-18T03:07:58;95.83;;;22.80;;
8500;SDS011;4288;48.484;10.024;2022-12-18T03:10:29;78.27;;;21.63;;
8500;SDS011;4288;48.484;10.024;2022-12-18T03:12:59;86.33;;;22.00;;
8500;SDS011;4288;48.484;10.024;2022-12-18T03:15:31;73.10;;;20.17;;
8500;SDS011;4288;48.484;10.024;2022-12-18T03:18:02;68.77;;;20.80;;
8500;SDS011;4288;48.484;10.024;2022-12-18T03:20:31;67.47;;;19.20;;
8500;SDS011;4288;48.484;10.024;2022-12-18T03:23:02;75.20;;;22.17;;
8500;SDS011;4288;48.484;10.024;2022-12-18T03:25:32;92.83;;;22.33;;
8500;SDS011;4288;48.484;10.024;2022-12-18T03:28:01;88.87;;;20.93;;
8500;SDS011;4288;48.484;10.024;2022-12-18T03:30:31;87.17;;;24.03;;
8500;SDS011;4288;48.484;10.024;2022-12-18T03:33:01;104.30;;;22.00;;
8500;SDS011;4288;48.484;10.024;2022-12-18T03:35:34;88.30;;;24.03;;
8500;SDS011;4288;48.484;10.024;2022-12-18T03:38:03;102.67;;;22.80;;
8500;SDS011;4288;48.484;10.024;2022-12-18T03:40:31;85.23;;;20.33;;
8500;SDS011;4288;48.484;10.024;2022-12-18T03:43:02;86.63;;;22.30;;
8500;SDS011;4288;48.484;10.024;2022-12-18T03:45:34;91.40;;;21.70;;
8500;SDS011;4288;48.484;10.024;2022-12-18T03:48:04;74.53;;;22.63;;
8500;SDS011;4288;48.484;10.024;2022-12-18T03:50:36;94.00;;;24.63;;
8500;SDS011;4288;48.484;10.024;2022-12-18T03:53:08;80.10;;;22.70;;
8500;SDS011;4288;48.484;10.024;2022-12-18T03:55:40;75.53;;;22.90;;
8500;SDS011;4288;48.484;10.024;2022-12-18T03:58:08;89.23;;;21.73;;
8500;SDS011;4288;48.484;10.024;2022-12-18T04:00:37;97.70;;;26.87;;
8500;SDS011;4288;48.484;10.024;2022-12-18T04:03:05;83.80;;;21.77;;
8500;SDS011;4288;48.484;10.024;2022-12-18T04:05:32;70.23;;;22.50;;
8500;SDS011;4288;48.484;10.024;2022-12-18T04:08:00;86.13;;;23.43;;
8500;SDS011;4288;48.484;10.024;2022-12-18T04:10:27;72.70;;;24.73;;
8500;SDS011;4288;48.484;10.024;2022-12-18T04:12:55;88.27;;;24.07;;
8500;SDS011;4288;48.484;10.024;2022-12-18T04:15:22;83.13;;;22.60;;
8500;SDS011;4288;48.484;10.024;2022-12-18T04:17:50;80.80;;;21.47;;
8500;SDS011;4288;48.484;10.024;2022-12-18T04:20:17;86.60;;;22.27;;
8500;SDS011;4288;48.484;10.024;2022-12-18T04:22:44;87.47;;;23.17;;
8500;SDS011;4288;48.484;10.024;2022-12-18T04:25:11;108.90;;;24.20;;
8500;SDS011;4288;48.484;10.024;2022-12-18T04:27:38;86.07;;;23.63;;
8500;SDS011;4288;48.484;10.024;2022-12-18T04:30:06;80.80;;;20.97;;
8500;SDS011;4288;48.484;10.024;2022-12-18T04:32:33;72.40;;;19.43;;
8500;SDS011;4288;48.484;10.024;2022-12-18T04:35:02;88.87;;;22.70;;
8500;SDS011;4288;48.484;10.024;2022-12-18T04:37:31;62.73;;;20.80;;
8500;SDS011;4288;48.484;10.024;2022-12-18T04:39:58;105.90;;;23.30;;
8500;SDS011;4288;48.484;10.024;2022-12-18T04:42:25;68.27;;;20.60;;
8500;SDS011;4288;48.484;10.024;2022-12-18T04:44:52;71.93;;;20.90;;
8500;SDS011;4288;48.484;10.024;2022-12-18T04:47:19;85.00;;;22.97;;
8500;SDS011;4288;48.484;10.024;2022-12-18T04:49:45;77.27;;;19.20;;
8500;SDS011;4288;48.484;10.024;2022-12-18T04:52:14;91.90;;;23.17;;
8500;SDS011;4288;48.484;10.024;2022-12-18T04:54:41;78.50;;;20.23;;
8500;SDS011;4288;48.484;10.024;2022-12-18T04:57:07;84.47;;;22.37;;
8500;SDS011;4288;48.484;10.024;2022-12-18T04:59:35;77.80;;;23.20;;
8500;SDS011;4288;48.484;10.024;2022-12-18T05:02:02;75.90;;;23.47;;
8500;SDS011;4288;48.484;10.024;2022-12-18T05:04:29;65.53;;;18.83;;
8500;SDS011;4288;48.484;10.024;2022-12-18T05:06:56;74.33;;;22.87;;
8500;SDS011;4288;48.484;10.024;2022-12-18T05:09:24;87.03;;;20.93;;
8500;SDS011;4288;48.484;10.024;2022-12-18T05:11:51;87.20;;;24.50;;
8500;SDS011;4288;48.484;10.024;2022-12-18T05:14:18;79.23;;;22.10;;
8500;SDS011;4288;48.484;10.024;2022-12-18T05:16:45;86.80;;;22.90;;
8500;SDS011;4288;48.484;10.024;2022-12-18T05:19:12;71.43;;;21.37;;
8500;SDS011;4288;48.484;10.024;2022-12-18T05:21:39;90.13;;;23.50;;
8500;SDS011;4288;48.484;10.024;2022-12-18T05:24:06;68.70;;;20.90;;
8500;SDS011;4288;48.484;10.024;2022-12-18T05:26:34;80.17;;;21.67;;
8500;SDS011;4288;48.484;10.024;2022-12-18T05:29:01;83.50;;;23.67;;
8500;SDS011;4288;48.484;10.024;2022-12-18T05:31:28;84.77;;;24.47;;
8500;SDS011;4288;48.484;10.024;2022-12-18T05:33:55;87.27;;;22.07;;
8500;SDS011;4288;48.484;10.024;2022-12-18T05:36:22;76.80;;;21.77;;
8500;SDS011;4288;48.484;10.024;2022-12-18T05:38:48;88.67;;;23.30;;
8500;SDS011;4288;48.484;10.024;2022-12-18T05:41:15;89.13;;;24.20;;
8500;SDS011;4288;48.484;10.024;2022-12-18T05:43:44;78.57;;;22.00;;
8500;SDS011;4288;48.484;10.024;2022-12-18T05:46:11;86.47;;;23.77;;
8500;SDS011;4288;48.484;10.024;2022-12-18T05:48:39;86.57;;;22.10;;
8500;SDS011;4288;48.484;10.024;2022-12-18T05:51:06;78.77;;;24.70;;
8500;SDS011;4288;48.484;10.024;2022-12-18T05:53:35;71.57;;;21.73;;
8500;SDS011;4288;48.484;10.024;2022-12-18T05:56:02;98.17;;;24.63;;
8500;SDS011;4288;48.484;10.024;2022-12-18T05:58:31;85.07;;;24.43;;
8500;SDS011;4288;48.484;10.024;2022-12-18T06:01:05;77.00;;;22.57;;
8500;SDS011;4288;48.484;10.024;2022-12-18T06:03:34;92.37;;;22.83;;
8500;SDS011;4288;48.484;10.024;2022-12-18T06:06:00;90.03;;;23.80;;
8500;SDS011;4288;48.484;10.024;2022-12-18T06:08:28;77.13;;;24.27;;
8500;SDS011;4288;48.484;10.024;2022-12-18T06:10:54;87.23;;;24.33;;
8500;SDS011;4288;48.484;10.024;2022-12-18T06:13:21;96.53;;;25.00;;
8500;SDS011;4288;48.484;10.024;2022-12-18T06:15:48;70.93;;;19.83;;
8500;SDS011;4288;48.484;10.024;2022-12-18T06:18:17;79.50;;;24.27;;
8500;SDS011;4288;48.484;10.024;2022-12-18T06:20:43;83.23;;;22.50;;
8500;SDS011;4288;48.484;10.024;2022-12-18T06:23:10;91.67;;;27.90;;
8500;SDS011;4288;48.484;10.024;2022-12-18T06:25:39;84.63;;;24.07;;
8500;SDS011;4288;48.484;10.024;2022-12-18T06:28:06;74.40;;;21.70;;
8500;SDS011;4288;48.484;10.024;2022-12-18T06:30:33;86.90;;;22.70;;
8500;SDS011;4288;48.484;10.024;2022-12-18T06:33:01;91.83;;;24.43;;
8500;SDS011;4288;48.484;10.024;2022-12-18T06:35:29;79.33;;;23.10;;
8500;SDS011;4288;48.484;10.024;2022-12-18T06:37:57;84.53;;;21.37;;
8500;SDS011;4288;48.484;10.024;2022-12-18T06:40:24;92.23;;;23.07;;
8500;SDS011;4288;48.484;10.024;2022-12-18T06:42:51;78.13;;;22.50;;
8500;SDS011;4288;48.484;10.024;2022-12-18T06:45:18;97.97;;;23.17;;
8500;SDS011;4288;48.484;10.024;2022-12-18T06:47:44;72.57;;;23.27;;
8500;SDS011;4288;48.484;10.024;2022-12-18T06:50:12;85.90;;;24.33;;
8500;SDS011;4288;48.484;10.024;2022-12-18T06:52:40;77.63;;;22.20;;
8500;SDS011;4288;48.484;10.024;2022-12-18T06:55:09;86.10;;;23.87;;
8500;SDS011;4288;48.484;10.024;2022-12-18T06:57:36;76.00;;;23.70;;
8500;SDS011;4288;48.484;10.024;2022-12-18T07:00:04;85.87;;;21.67;;
8500;SDS011;4288;48.484;10.024;2022-12-18T07:02:32;86.67;;;23.83;;
8500;SDS011;4288;48.484;10.024;2022-12-18T07:04:59;76.40;;;24.63;;
8500;SDS011;4288;48.484;10.024;2022-12-18T07:07:26;91.63;;;25.53;;
8500;SDS011;4288;48.484;10.024;2022-12-18T07:09:55;90.70;;;25.23;;
8500;SDS011;4288;48.484;10.024;2022-12-18T07:12:21;66.87;;;22.23;;
8500;SDS011;4288;48.484;10.024;2022-12-18T07:14:48;86.17;;;27.07;;
8500;SDS011;4288;48.484;10.024;2022-12-18T07:17:15;76.40;;;23.40;;
8500;SDS011;4288;48.484;10.024;2022-12-18T07:19:42;84.20;;;24.10;;
8500;SDS011;4288;48.484;10.024;2022-12-18T07:22:09;78.77;;;22.63;;
8500;SDS011;4288;48.484;10.024;2022-12-18T07:24:36;73.77;;;22.30;;
8500;SDS011;4288;48.484;10.024;2022-12-18T07:27:04;64.20;;;20.93;;
8500;SDS011;4288;48.484;10.024;2022-12-18T07:29:31;62.37;;;21.20;;
8500;SDS011;4288;48.484;10.024;2022-12-18T07:31:58;84.00;;;23.23;;
8500;SDS011;4288;48.484;10.024;2022-12-18T07:34:25;74.43;;;22.20;;
8500;SDS011;4288;48.484;10.024;2022-12-18T07:36:52;83.90;;;22.17;;
8500;SDS011;4288;48.484;10.024;2022-12-18T07:39:19;70.77;;;22.20;;
8500;SDS011;4288;48.484;10.024;2022-12-18T07:41:45;79.53;;;22.50;;
8500;SDS011;4288;48.484;10.024;2022-12-18T07:44:34;72.37;;;21.97;;
8500;SDS011;4288;48.484;10.024;2022-12-18T07:47:00;75.00;;;20.70;;
8500;SDS011;4288;48.484;10.024;2022-12-18T07:49:27;76.00;;;21.30;;
8500;SDS011;4288;48.484;10.024;2022-12-18T07:51:54;69.97;;;19.60;;
8500;SDS011;4288;48.484;10.024;2022-12-18T07:54:21;68.57;;;21.17;;
8500;SDS011;4288;48.484;10.024;2022-12-18T07:56:48;64.17;;;20.83;;
8500;SDS011;4288;48.484;10.024;2022-12-18T07:59:15;80.37;;;22.53;;
8500;SDS011;4288;48.484;10.024;2022-12-18T08:01:43;80.97;;;18.70;;
8500;SDS011;4288;48.484;10.024;2022-12-18T08:04:10;75.40;;;20.53;;
8500;SDS011;4288;48.484;10.024;2022-12-18T08:06:37;70.50;;;18.40;;
8500;SDS011;4288;48.484;10.024;2022-12-18T08:09:04;69.30;;;20.93;;
8500;SDS011;4288;48.484;10.024;2022-12-18T08:11:31;68.70;;;17.53;;
8500;SDS011;4288;48.484;10.024;2022-12-18T08:13:58;72.33;;;19.53;;
8500;SDS011;4288;48.484;10.024;2022-12-18T08:16:25;58.47;;;18.73;;
8500;SDS011;4288;48.484;10.024;2022-12-18T08:18:54;60.57;;;17.27;;
8500;SDS011;4288;48.484;10.024;2022-12-18T08:21:21;58.07;;;17.63;;
8500;SDS011;4288;48.484;10.024;2022-12-18T08:23:50;54.10;;;17.70;;
8500;SDS011;4288;48.484;10.024;2022-12-18T08:26:17;49.43;;;15.27;;
8500;SDS011;4288;48.484;10.024;2022-12-18T08:28:44;52.60;;;16.67;;
8500;SDS011;4288;48.484;10.024;2022-12-18T08:31:12;62.10;;;16.80;;
8500;SDS011;4288;48.484;10.024;2022-12-18T08:33:39;60.33;;;17.20;;
8500;SDS011;4288;48.484;10.024;2022-12-18T08:36:08;46.10;;;14.37;;
8500;SDS011;4288;48.484;10.024;2022-12-18T08:38:36;49.67;;;16.37;;
8500;SDS011;4288;48.484;10.024;2022-12-18T08:41:04;55.07;;;16.27;;
8500;SDS011;4288;48.484;10.024;2022-12-18T08:43:33;49.43;;;17.63;;
8500;SDS011;4288;48.484;10.024;2022-12-18T08:46:18;60.53;;;17.23;;
8500;SDS011;4288;48.484;10.024;2022-12-18T08:48:47;54.57;;;17.40;;
8500;SDS011;4288;48.484;10.024;2022-12-18T08:51:19;41.07;;;16.27;;
8500;SDS011;4288;48.484;10.024;2022-12-18T08:53:46;46.40;;;15.90;;
8500;SDS011;4288;48.484;10.024;2022-12-18T08:56:14;53.03;;;14.80;;
8500;SDS011;4288;48.484;10.024;2022-12-18T08:58:41;43.87;;;14.10;;
8500;SDS011;4288;48.484;10.024;2022-12-18T09:01:10;35.83;;;14.13;;
8500;SDS011;4288;48.484;10.024;2022-12-18T09:03:38;41.87;;;13.93;;
8500;SDS011;4288;48.484;10.024;2022-12-18T09:06:06;36.37;;;13.30;;
8500;SDS011;4288;48.484;10.024;2022-12-18T09:08:35;39.17;;;12.83;;
8500;SDS011;4288;48.484;10.024;2022-12-18T09:11:02;52.50;;;14.93;;
8500;SDS011;4288;48.484;10.024;2022-12-18T09:13:30;57.10;;;15.70;;
8500;SDS011;4288;48.484;10.024;2022-12-18T09:15:57;46.47;;;14.83;;
8500;SDS011;4288;48.484;10.024;2022-12-18T09:18:24;43.63;;;15.30;;
8500;SDS011;4288;48.484;10.024;2022-12-18T09:20:52;48.73;;;17.60;;
8500;SDS011;4288;48.484;10.024;2022-12-18T09:23:19;49.43;;;15.00;;
8500;SDS011;4288;48.484;10.024;2022-12-18T09:25:48;47.93;;;14.93;;
8500;SDS011;4288;48.484;10.024;2022-12-18T09:28:16;45.03;;;14.60;;
8500;SDS011;4288;48.484;10.024;2022-12-18T09:30:45;39.80;;;12.30;;
8500;SDS011;4288;48.484;10.024;2022-12-18T09:33:14;34.23;;;11.27;;
8500;SDS011;4288;48.484;10.024;2022-12-18T09:35:43;38.33;;;14.13;;
8500;SDS011;4288;48.484;10.024;2022-12-18T09:38:11;41.03;;;15.33;;
8500;SDS011;4288;48.484;10.024;2022-12-18T09:40:41;52.27;;;16.93;;
8500;SDS011;4288;48.484;10.024;2022-12-18T09:43:16;43.73;;;15.77;;
8500;SDS011;4288;48.484;10.024;2022-12-18T09:45:49;43.83;;;16.23;;
8500;SDS011;4288;48.484;10.024;2022-12-18T09:48:21;52.07;;;17.13;;
8500;SDS011;4288;48.484;10.024;2022-12-18T09:50:55;44.90;;;16.10;;
8500;SDS011;4288;48.484;10.024;2022-12-18T09:53:28;44.57;;;14.47;;
8500;SDS011;4288;48.484;10.024;2022-12-18T09:56:01;42.23;;;14.70;;
8500;SDS011;4288;48.484;10.024;2022-12-18T09:58:33;43.10;;;15.43;;
8500;SDS011;4288;48.484;10.024;2022-12-18T10:01:09;49.80;;;16.13;;
8500;SDS011;4288;48.484;10.024;2022-12-18T10:03:38;47.50;;;15.70;;
8500;SDS011;4288;48.484;10.024;2022-12-18T10:06:06;41.07;;;16.60;;
8500;SDS011;4288;48.484;10.024;2022-12-18T10:08:39;43.97;;;16.10;;
8500;SDS011;4288;48.484;10.024;2022-12-18T10:14:09;57.83;;;22.80;;
8500;SDS011;4288;48.484;10.024;2022-12-18T10:16:47;38.03;;;14.67;;
8500;SDS011;4288;48.484;10.024;2022-12-18T10:19:36;42.43;;;14.57;;
8500;SDS011;4288;48.484;10.024;2022-12-18T10:22:16;40.50;;;15.70;;
8500;SDS011;4288;48.484;10.024;2022-12-18T10:24:57;42.23;;;15.23;;
8500;SDS011;4288;48.484;10.024;2022-12-18T10:27:30;43.03;;;15.80;;
8500;SDS011;4288;48.484;10.024;2022-12-18T10:29:59;40.90;;;14.90;;
8500;SDS011;4288;48.484;10.024;2022-12-18T10:32:38;42.27;;;13.47;;
8500;SDS011;4288;48.484;10.024;2022-12-18T10:35:07;54.83;;;16.57;;
8500;SDS011;4288;48.484;10.024;2022-12-18T10:37:59;41.00;;;14.60;;
8500;SDS011;4288;48.484;10.024;2022-12-18T10:40:28;37.70;;;14.67;;
8500;SDS011;4288;48.484;10.024;2022-12-18T10:43:05;51.17;;;15.47;;
8500;SDS011;4288;48.484;10.024;2022-12-18T10:45:39;38.60;;;13.87;;
8500;SDS011;4288;48.484;10.024;2022-12-18T10:48:17;32.70;;;13.27;;
8500;SDS011;4288;48.484;10.024;2022-12-18T10:50:46;35.03;;;13.23;;
8500;SDS011;4288;48.484;10.024;2022-12-18T10:53:18;38.67;;;13.13;;
8500;SDS011;4288;48.484;10.024;2022-12-18T10:55:49;33.07;;;12.80;;
8500;SDS011;4288;48.484;10.024;2022-12-18T10:58:22;32.17;;;13.37;;
8500;SDS011;4288;48.484;10.024;2022-12-18T11:01:04;47.80;;;14.67;;
8500;SDS011;4288;48.484;10.024;2022-12-18T11:03:37;41.63;;;17.87;;
8500;SDS011;4288;48.484;10.024;2022-12-18T11:06:08;37.07;;;12.77;;
8500;SDS011;4288;48.484;10.024;2022-12-18T11:08:37;33.90;;;13.00;;
8500;SDS011;4288;48.484;10.024;2022-12-18T11:11:07;41.20;;;15.50;;
8500;SDS011;4288;48.484;10.024;2022-12-18T11:13:48;34.33;;;14.67;;
8500;SDS011;4288;48.484;10.024;2022-12-18T11:16:30;32.07;;;13.67;;
8500;SDS011;4288;48.484;10.024;2022-12-18T11:19:10;38.40;;;14.67;;
8500;SDS011;4288;48.484;10.024;2022-12-18T11:21:49;29.80;;;13.57;;
8500;SDS011;4288;48.484;10.024;2022-12-18T11:24:29;40.13;;;15.33;;
8500;SDS011;4288;48.484;10.024;2022-12-18T11:26:59;48.97;;;15.13;;
8500;SDS011;4288;48.484;10.024;2022-12-18T11:29:33;40.97;;;15.63;;
8500;SDS011;4288;48.484;10.024;2022-12-18T11:32:19;40.73;;;15.23;;
8500;SDS011;4288;48.484;10.024;2022-12-18T11:35:11;64.20;;;18.83;;
8500;SDS011;4288;48.484;10.024;2022-12-18T11:37:45;41.37;;;15.50;;
8500;SDS011;4288;48.484;10.024;2022-12-18T11:40:19;49.77;;;19.30;;
8500;SDS011;4288;48.484;10.024;2022-12-18T11:43:00;57.87;;;21.00;;
8500;SDS011;4288;48.484;10.024;2022-12-18T11:45:35;46.90;;;15.97;;
8500;SDS011;4288;48.484;10.024;2022-12-18T11:48:12;54.30;;;18.40;;
8500;SDS011;4288;48.484;10.024;2022-12-18T11:50:47;51.93;;;16.90;;
8500;SDS011;4288;48.484;10.024;2022-12-18T11:53:17;51.23;;;18.03;;
8500;SDS011;4288;48.484;10.024;2022-12-18T11:55:50;45.47;;;18.20;;
8500;SDS011;4288;48.484;10.024;2022-12-18T12:01:19;34.23;;;14.30;;
8500;SDS011;4288;48.484;10.024;2022-12-18T12:04:17;32.20;;;13.23;;
8500;SDS011;4288;48.484;10.024;2022-12-18T12:07:17;36.40;;;12.93;;
8500;SDS011;4288;48.484;10.024;2022-12-18T12:10:00;35.60;;;12.33;;
8500;SDS011;4288;48.484;10.024;2022-12-18T12:12:47;40.70;;;13.17;;
8500;SDS011;4288;48.484;10.024;2022-12-18T12:15:40;46.83;;;15.43;;
8500;SDS011;4288;48.484;10.024;2022-12-18T12:18:19;41.20;;;15.43;;
8500;SDS011;4288;48.484;10.024;2022-12-18T12:21:02;35.20;;;13.70;;
8500;SDS011;4288;48.484;10.024;2022-12-18T12:23:37;35.10;;;15.00;;
8500;SDS011;4288;48.484;10.024;2022-12-18T12:26:14;41.10;;;16.10;;
8500;SDS011;4288;48.484;10.024;2022-12-18T12:31:54;43.40;;;15.97;;
8500;SDS011;4288;48.484;10.024;2022-12-18T12:34:34;34.67;;;13.60;;
8500;SDS011;4288;48.484;10.024;2022-12-18T12:37:19;35.90;;;14.70;;
8500;SDS011;4288;48.484;10.024;2022-12-18T12:39:55;40.73;;;15.00;;
8500;SDS011;4288;48.484;10.024;2022-12-18T12:42:25;41.53;;;14.67;;
8500;SDS011;4288;48.484;10.024;2022-12-18T12:45:16;38.50;;;13.77;;
8500;SDS011;4288;48.484;10.024;2022-12-18T12:47:49;36.87;;;14.17;;
8500;SDS011;4288;48.484;10.024;2022-12-18T12:50:18;36.17;;;15.53;;
8500;SDS011;4288;48.484;10.024;2022-12-18T12:52:50;38.70;;;15.43;;
8500;SDS011;4288;48.484;10.024;2022-12-18T12:55:21;37.57;;;15.47;;
8500;SDS011;4288;48.484;10.024;2022-12-18T12:57:54;32.03;;;14.83;;
8500;SDS011;4288;48.484;10.024;2022-12-18T13:00:29;32.83;;;13.43;;
8500;SDS011;4288;48.484;10.024;2022-12-18T13:03:04;34.37;;;15.87;;
8500;SDS011;4288;48.484;10.024;2022-12-18T13:05:43;36.93;;;11.90;;
8500;SDS011;4288;48.484;10.024;2022-12-18T13:08:24;32.67;;;13.40;;
8500;SDS011;4288;48.484;10.024;2022-12-18T13:10:53;40.77;;;15.13;;
8500;SDS011;4288;48.484;10.024;2022-12-18T13:13:49;48.40;;;14.47;;
8500;SDS011;4288;48.484;10.024;2022-12-18T13:16:18;39.60;;;15.50;;
8500;SDS011;4288;48.484;10.024;2022-12-18T13:18:48;42.73;;;14.03;;
8500;SDS011;4288;48.484;10.024;2022-12-18T13:21:19;40.13;;;16.13;;
8500;SDS011;4288;48.484;10.024;2022-12-18T13:23:53;39.23;;;14.63;;
8500;SDS011;4288;48.484;10.024;2022-12-18T13:26:28;46.00;;;18.60;;
8500;SDS011;4288;48.484;10.024;2022-12-18T13:28:59;31.40;;;12.90;;
8500;SDS011;4288;48.484;10.024;2022-12-18T13:34:45;36.03;;;14.57;;
8500;SDS011;4288;48.484;10.024;2022-12-18T13:43:23;42.90;;;14.93;;
8500;SDS011;4288;48.484;10.024;2022-12-18T13:46:01;49.17;;;17.27;;
8500;SDS011;4288;48.484;10.024;2022-12-18T13:48:43;51.00;;;17.20;;
8500;SDS011;4288;48.484;10.024;2022-12-18T13:51:18;37.10;;;14.07;;
8500;SDS011;4288;48.484;10.024;2022-12-18T13:53:48;35.80;;;11.47;;
8500;SDS011;4288;48.484;10.024;2022-12-18T13:56:21;179.03;;;53.97;;
8500;SDS011;4288;48.484;10.024;2022-12-18T13:59:03;49.10;;;21.80;;
8500;SDS011;4288;48.484;10.024;2022-12-18T14:01:41;33.30;;;12.70;;
8500;SDS011;4288;48.484;10.024;2022-12-18T14:04:11;32.67;;;13.30;;
8500;SDS011;4288;48.484;10.024;2022-12-18T14:06:44;32.57;;;13.20;;
8500;SDS011;4288;48.484;10.024;2022-12-18T14:09:13;38.00;;;14.07;;
8500;SDS011;4288;48.484;10.024;2022-12-18T14:11:49;39.60;;;13.40;;
8500;SDS011;4288;48.484;10.024;2022-12-18T14:14:18;37.10;;;15.37;;
8500;SDS011;4288;48.484;10.024;2022-12-18T14:16:45;39.83;;;13.60;;
8500;SDS011;4288;48.484;10.024;2022-12-18T14:19:14;39.83;;;15.10;;
8500;SDS011;4288;48.484;10.024;2022-12-18T14:21:47;38.27;;;15.27;;
8500;SDS011;4288;48.484;10.024;2022-12-18T14:24:16;40.33;;;14.10;;
8500;SDS011;4288;48.484;10.024;2022-12-18T14:26:47;39.70;;;14.57;;
8500;SDS011;4288;48.484;10.024;2022-12-18T14:29:21;35.53;;;13.57;;
8500;SDS011;4288;48.484;10.024;2022-12-18T14:32:04;35.70;;;14.07;;
8500;SDS011;4288;48.484;10.024;2022-12-18T14:34:35;37.37;;;12.90;;
8500;SDS011;4288;48.484;10.024;2022-12-18T14:37:02;45.13;;;16.80;;
8500;SDS011;4288;48.484;10.024;2022-12-18T14:39:30;35.23;;;16.03;;
8500;SDS011;4288;48.484;10.024;2022-12-18T14:41:58;42.60;;;15.73;;
8500;SDS011;4288;48.484;10.024;2022-12-18T14:44:25;39.83;;;14.27;;
8500;SDS011;4288;48.484;10.024;2022-12-18T14:46:52;46.97;;;17.30;;
8500;SDS011;4288;48.484;10.024;2022-12-18T14:49:21;39.30;;;15.70;;
8500;SDS011;4288;48.484;10.024;2022-12-18T14:51:53;40.27;;;14.13;;
8500;SDS011;4288;48.484;10.024;2022-12-18T14:54:22;36.70;;;12.97;;
8500;SDS011;4288;48.484;10.024;2022-12-18T14:56:59;44.00;;;15.27;;
8500;SDS011;4288;48.484;10.024;2022-12-18T14:59:31;40.37;;;15.70;;
8500;SDS011;4288;48.484;10.024;2022-12-18T15:02:00;35.83;;;14.40;;
8500;SDS011;4288;48.484;10.024;2022-12-18T15:04:35;42.27;;;15.30;;
8500;SDS011;4288;48.484;10.024;2022-12-18T15:07:06;35.10;;;14.53;;
8500;SDS011;4288;48.484;10.024;2022-12-18T15:09:39;35.73;;;14.30;;
8500;SDS011;4288;48.484;10.024;2022-12-18T15:12:32;36.30;;;13.60;;
8500;SDS011;4288;48.484;10.024;2022-12-18T15:15:01;39.83;;;14.53;;